• Join FlightAware (Why Join?)
  • Login
  • US Flag 
01:59AM EDT


 

Airport Tracker/Info


-or-


 

Live Flight TrackerFlight Track Log ✈ SKW6492 ✈ 30-Jun-2013 ✈ KDEN - KCOD

Flight Track Log - Related Links

Times and Time Zones

All times are in EDT time to prevent confusion due to time zone crossing. See the SKW6492 flight status page for this flight to view local times or setup timezone preferences in your user account.

Time Position Orientation Groundspeed Altitude Reporting Facility
EDT Latitude Longitude Course Direction KTS MPH feet Rate Location/Type
09:57PM 39.8833 -104.5667 346° North 199 229 7,600  Level Denver TRACON
09:58PM 39.9000 -104.4833 75° East 262 302 9,300 1,860 Climbing Denver TRACON
09:59PM 40.1435 -104.7643 344° North  Level FlightAware Approximate
09:59PM 39.9392 -104.4108 55° Northeast 286 329 11,200  Level Denver Center
10:00PM 40.2421 -104.7943 347° North  Level FlightAware Approximate
10:00PM 40.0125 -104.4450 340° North 293 337 13,400  Level Denver Center
10:01PM 40.3406 -104.8247 346° North  Level FlightAware Approximate
10:01PM 40.0983 -104.5047 332° Northwest 294 338 15,600  Level Denver Center
10:02PM 40.4387 -104.8573 346° North  Level FlightAware Approximate
10:02PM 40.1989 -104.4367 27° Northeast 337 388 17,000  Level Denver Center
10:03PM 40.2842 -104.3636 33° Northeast 342 394 18,200 1,320 Climbing Denver Center
10:04PM 40.3775 -104.3381 12° North 344 396 19,800 1,500 Climbing Denver Center
10:05PM 40.4739 -104.3094 13° North 327 376 21,300 1,020 Climbing Denver Center
10:06PM 40.5717 -104.2861 10° North 355 409 21,900 840 Climbing Denver Center
10:07PM 40.6667 -104.2975 355° North 340 391 23,100 1,260 Climbing Denver Center
10:08PM 40.7656 -104.3472 339° North 345 397 24,600 1,260 Climbing Denver Center
10:09PM 40.8533 -104.3997 336° Northwest 345 397 25,800 660 Climbing Denver Center
10:10PM 40.9433 -104.4481 338° Northwest 351 404 26,000 660 Climbing Denver Center
10:12PM 41.0414 -104.5039 337° Northwest 368 423 27,200 1,200 Climbing Denver Center
10:13PM 41.1194 -104.5694 328° Northwest 352 405 28,500 1,080 Climbing Denver Center
10:14PM 41.2008 -104.6639 319° Northwest 348 400 29,500 720 Climbing Denver Center
10:15PM 41.2728 -104.7442 320° Northwest 350 403 30,000 240 Climbing Denver Center
10:16PM 41.3592 -104.8453 319° Northwest 366 421 30,000  Level Denver Center
10:17PM 41.4364 -104.9372 318° Northwest 383 441 30,000 120 Level Denver Center
10:18PM 41.5164 -105.0308 319° Northwest 394 453 30,300 540 Climbing Denver Center
10:19PM 41.5944 -105.1244 318° Northwest 393 452 31,200 720 Climbing Denver Center
10:20PM 41.6828 -105.2314 318° Northwest 383 441 31,800 360 Climbing Denver Center
10:21PM 41.7719 -105.3356 319° Northwest 380 437 32,000 60 Climbing Denver Center
10:22PM 41.8508 -105.4308 318° Northwest 394 453 32,000  Level Denver Center
10:23PM 41.9442 -105.5428 318° Northwest 402 463 32,000  Level Denver Center
10:24PM 42.0269 -105.6422 318° Northwest 409 471 32,000  Level Denver Center
10:25PM 42.1067 -105.7394 318° Northwest 408 470 32,000  Level Denver Center
10:26PM 42.1869 -105.8353 319° Northwest 403 464 32,000  Level Denver Center
10:27PM 42.2817 -105.9489 318° Northwest 407 468 32,000  Level Denver Center
10:28PM 42.3744 -106.0622 318° Northwest 402 463 32,000  Level Denver Center
10:29PM 42.4544 -106.1597 318° Northwest 403 464 32,000  Level Denver Center
10:30PM 42.5350 -106.2567 318° Northwest 404 465 32,000  Level Denver Center
10:31PM 42.6400 -106.3539 326° Northwest 407 468 32,000  Level Denver Center
10:32PM 42.7297 -106.4350 326° Northwest 406 467 32,000  Level Denver Center
10:33PM 42.8375 -106.5244 329° Northwest 405 466 32,000  Level Denver Center
10:34PM 42.9428 -106.6164 327° Northwest 403 464 32,000  Level Denver Center
10:35PM 43.0519 -106.7019 330° Northwest 403 464 32,000  Level Denver Center
10:36PM 43.1439 -106.7814 328° Northwest 405 466 32,000  Level Denver Center
10:38PM 43.2300 -106.9075 313° West 406 467 32,000  Level Denver Center
10:38PM 43.3050 -107.0172 313° West 407 468 32,000  Level Salt Lake Center
10:39PM 43.3900 -107.1492 312° West 411 473 32,000  Level Salt Lake Center
10:40PM 43.4614 -107.2636 311° West 412 474 32,000  Level Salt Lake Center
10:42PM 43.5403 -107.3914 310° West 412 474 32,000  Level Salt Lake Center
10:43PM 43.6114 -107.5067 310° West 412 474 32,000  Level Salt Lake Center
10:44PM 43.6961 -107.6422 311° West 417 480 32,000  Level Salt Lake Center
10:45PM 43.7664 -107.7583 310° West 414 476 32,000  Level Salt Lake Center
10:46PM 43.8369 -107.8758 310° West 415 478 32,000 -1,560 Level Salt Lake Center
10:47PM 43.9192 -108.0125 310° West 414 476 28,900 -3,180 Descending Salt Lake Center
10:48PM 43.9897 -108.1292 310° West 414 476 25,500 -3,300 Descending Salt Lake Center
10:49PM 44.0583 -108.2436 310° West 405 466 22,200 -3,660 Descending Salt Lake Center
10:50PM 44.1428 -108.3781 311° West 394 453 18,000 -4,140 Descending Salt Lake Center
10:52PM 44.2691 -108.5874 310° West  Level FlightAware Approximate
10:59PM 44.5167 -109.0167 313° West  Level FlightAware Approximate
11:00PM 44.5202 -109.0238 313° West  Level Estimated
11:01PM 44.5167 -109.0167 313° West  Level FlightAware Approximate